Time;durP1;ratioP1;P1;durP2;ratioP2;P2;SDS_P1;SDS_P2;PMS_P1;PMS_P2;Temp;Humidity;BMP_temperature;BMP_pressure;BME280_temperature;BME280_humidity;BME280_pressure;Samples;Min_cycle;Max_cycle;Signal;HPM_P1;HPM_P2
2023/10/16 00:01:55;;;;;;;3.80;3.30;;;;;;;7.83;100.00;97030.50;110091;1243;68379;-60
2023/10/16 00:04:27;;;;;;;3.80;2.70;;;;;;;7.75;100.00;97033.14;110122;1245;60532;-61
2023/10/16 00:07:02;;;;;;;5.70;3.30;;;;;;;7.61;100.00;97034.40;110163;1244;60964;-60
2023/10/16 00:09:39;;;;;;;5.50;2.90;;;;;;;7.54;100.00;97032.43;110103;1244;72222;-60
2023/10/16 00:12:19;;;;;;;4.30;3.50;;;;;;;7.59;100.00;97037.48;110110;1244;67655;-60
2023/10/16 00:14:53;;;;;;;6.00;3.00;;;;;;;7.53;100.00;97040.29;110067;1244;69344;-60
2023/10/16 00:17:31;;;;;;;3.10;2.60;;;;;;;7.37;100.00;97040.83;110114;1244;60489;-60
2023/10/16 00:20:13;;;;;;;4.60;3.10;;;;;;;7.39;100.00;97040.73;110112;1244;60483;-60
2023/10/16 00:22:45;;;;;;;3.30;2.80;;;;;;;7.32;100.00;97044.28;110114;1244;71516;-60
2023/10/16 00:25:16;;;;;;;4.40;2.70;;;;;;;7.32;100.00;97051.90;110178;1250;69208;-59
2023/10/16 00:27:48;;;;;;;2.80;2.30;;;;;;;7.21;100.00;97052.46;110162;1241;69122;-62
2023/10/16 00:30:24;;;;;;;4.30;2.50;;;;;;;7.22;100.00;97052.38;110079;1244;60547;-60
2023/10/16 00:33:00;;;;;;;3.80;2.60;;;;;;;7.25;100.00;97047.36;110109;1244;60547;-61
2023/10/16 00:35:32;;;;;;;3.20;2.10;;;;;;;7.25;100.00;97042.16;110211;1244;72217;-61
2023/10/16 00:38:12;;;;;;;3.20;2.30;;;;;;;7.22;100.00;97044.42;110134;1244;69297;-61
2023/10/16 00:41:24;;;;;;;3.80;2.60;;;;;;;7.02;100.00;97050.21;110124;1244;69342;-60
2023/10/16 00:43:45;;;;;;;3.10;2.40;;;;;;;7.04;100.00;97052.14;110197;1248;61001;-60
2023/10/16 00:46:38;;;;;;;3.30;2.60;;;;;;;6.99;100.00;97047.80;110273;1245;60547;-61
2023/10/16 00:49:12;;;;;;;4.90;2.70;;;;;;;6.92;100.00;97053.11;110220;1241;71368;-62
2023/10/16 00:51:49;;;;;;;3.40;2.40;;;;;;;6.95;100.00;97057.63;110128;1241;68793;-61
2023/10/16 00:54:30;;;;;;;3.30;2.40;;;;;;;6.91;100.00;97061.00;110118;1245;68410;-61
2023/10/16 00:57:04;;;;;;;2.50;2.10;;;;;;;6.90;100.00;97059.80;110143;1245;60548;-61
2023/10/16 00:59:36;;;;;;;3.40;2.20;;;;;;;6.90;100.00;97060.87;110163;1244;60941;-62
2023/10/16 01:04:44;;;;;;;3.60;2.10;;;;;;;6.83;100.00;97060.60;110128;1243;68602;-59
2023/10/16 01:07:15;;;;;;;3.40;2.70;;;;;;;6.70;100.00;97061.45;110128;1242;69316;-60
2023/10/16 01:09:52;;;;;;;4.40;2.60;;;;;;;6.76;100.00;97063.16;110143;1243;60832;-60
2023/10/16 01:12:23;;;;;;;3.50;2.20;;;;;;;6.76;100.00;97066.26;110138;1244;60569;-60
2023/10/16 01:14:55;;;;;;;4.10;2.30;;;;;;;6.74;100.00;97062.40;110113;1244;72180;-60
2023/10/16 01:17:30;;;;;;;4.00;2.50;;;;;;;6.74;100.00;97059.78;110163;1242;68639;-60
2023/10/16 01:20:04;;;;;;;5.00;2.70;;;;;;;6.72;100.00;97061.31;110084;1244;68315;-60
2023/10/16 01:22:43;;;;;;;2.60;2.00;;;;;;;6.69;100.00;97061.48;110066;1248;60482;-62
2023/10/16 01:25:24;;;;;;;4.10;2.00;;;;;;;6.66;100.00;97063.96;110088;1242;60548;-61
2023/10/16 01:28:04;;;;;;;4.80;2.40;;;;;;;6.63;100.00;97069.14;110170;1245;72325;-61
2023/10/16 01:30:40;;;;;;;4.00;2.70;;;;;;;6.46;100.00;97072.63;110110;1244;68336;-60
2023/10/16 01:33:13;;;;;;;4.50;2.60;;;;;;;6.44;100.00;97081.56;110088;1243;69168;-61
2023/10/16 01:35:43;;;;;;;2.70;2.20;;;;;;;6.46;100.00;97084.05;110122;1244;60605;-60
2023/10/16 01:38:20;;;;;;;3.90;2.60;;;;;;;6.43;100.00;97090.30;110086;1244;60481;-60
2023/10/16 01:43:46;;;;;;;5.40;2.70;;;;;;;6.40;100.00;97090.67;110100;1242;69331;-60
2023/10/16 01:46:20;;;;;;;3.70;2.60;;;;;;;6.39;100.00;97091.76;110216;1244;68343;-60
2023/10/16 01:48:55;;;;;;;4.50;3.00;;;;;;;6.35;100.00;97096.11;110062;1246;60554;-60
2023/10/16 01:51:35;;;;;;;3.20;2.60;;;;;;;6.31;100.00;97102.46;110071;1249;60512;-60
2023/10/16 01:54:12;;;;;;;5.00;2.80;;;;;;;6.30;100.00;97106.28;110126;1246;72169;-60
2023/10/16 01:56:53;;;;;;;5.30;2.80;;;;;;;6.31;100.00;97114.38;110142;1246;69339;-60
2023/10/16 01:59:28;;;;;;;4.60;2.30;;;;;;;6.28;100.00;97117.31;110154;1245;69150;-61
2023/10/16 02:02:00;;;;;;;4.70;2.60;;;;;;;6.28;100.00;97118.38;110125;1241;60476;-61
2023/10/16 02:04:32;;;;;;;3.90;2.60;;;;;;;6.25;100.00;97119.40;110116;1246;60546;-60
2023/10/16 02:07:11;;;;;;;4.60;2.60;;;;;;;6.25;100.00;97129.29;110108;1243;72185;-61
2023/10/16 02:09:45;;;;;;;4.60;2.80;;;;;;;6.18;100.00;97129.02;110114;1244;68458;-60
2023/10/16 02:12:17;;;;;;;3.40;2.20;;;;;;;6.23;100.00;97135.45;110104;1245;69321;-61
2023/10/16 02:14:49;;;;;;;4.90;2.60;;;;;;;6.21;100.00;97136.95;110088;1245;60557;-60
2023/10/16 02:17:26;;;;;;;4.40;2.70;;;;;;;6.11;100.00;97137.02;110142;1242;60486;-60
2023/10/16 02:19:59;;;;;;;4.30;2.90;;;;;;;6.16;100.00;97141.61;110082;1242;71700;-60
2023/10/16 02:22:32;;;;;;;5.20;2.40;;;;;;;6.17;100.00;97140.66;110090;1244;69691;-62
2023/10/16 02:25:12;;;;;;;4.50;2.50;;;;;;;6.18;100.00;97145.10;110148;1245;69123;-59
2023/10/16 02:27:50;;;;;;;3.60;2.40;;;;;;;6.19;100.00;97151.14;110120;1244;60560;-60
2023/10/16 02:30:30;;;;;;;3.10;2.40;;;;;;;6.19;100.00;97155.42;110156;1244;60501;-60
2023/10/16 02:33:18;;;;;;;3.10;2.30;;;;;;;6.20;100.00;97159.35;110141;1242;72140;-60
2023/10/16 02:35:57;;;;;;;6.30;2.40;;;;;;;6.20;100.00;97163.71;110059;1246;68551;-60
2023/10/16 02:38:31;;;;;;;4.20;2.70;;;;;;;6.12;100.00;97174.33;110142;1242;68970;-60
2023/10/16 02:41:04;;;;;;;5.10;2.70;;;;;;;6.16;100.00;97179.50;110123;1245;60472;-60
2023/10/16 02:43:41;;;;;;;3.80;2.80;;;;;;;6.17;100.00;97188.41;110159;1243;60550;-60
2023/10/16 02:46:21;;;;;;;6.10;2.90;;;;;;;6.20;100.00;97197.58;110116;1244;71696;-60
2023/10/16 02:48:55;;;;;;;5.10;2.60;;;;;;;6.18;100.00;97200.80;110137;1251;69155;-60
2023/10/16 02:51:25;;;;;;;5.00;2.80;;;;;;;6.15;100.00;97204.30;110116;1245;68366;-59
2023/10/16 02:53:56;;;;;;;4.40;2.50;;;;;;;6.09;100.00;97206.00;110063;1244;60552;-60
2023/10/16 02:56:26;;;;;;;3.60;2.90;;;;;;;6.05;100.00;97208.47;110094;1244;60547;-60
2023/10/16 02:59:07;;;;;;;4.00;2.60;;;;;;;6.01;100.00;97214.43;110054;1247;71277;-62
2023/10/16 03:01:40;;;;;;;4.50;3.00;;;;;;;6.00;100.00;97220.04;110071;1244;68572;-60
2023/10/16 03:04:15;;;;;;;5.30;2.70;;;;;;;5.94;100.00;97227.85;110107;1244;68564;-60
2023/10/16 03:06:48;;;;;;;4.30;2.90;;;;;;;5.93;100.00;97234.09;110039;1244;60478;-60
2023/10/16 03:09:25;;;;;;;4.70;2.80;;;;;;;5.91;100.00;97238.32;110093;1246;60471;-60
2023/10/16 03:12:08;;;;;;;3.90;2.40;;;;;;;5.88;100.00;97249.04;110089;1245;72228;-60
2023/10/16 03:14:57;;;;;;;4.00;3.10;;;;;;;5.95;100.00;97249.39;110217;1242;68603;-60
2023/10/16 03:20:22;;;;;;;6.40;3.50;;;;;;;5.96;100.00;97252.92;110114;1243;60514;-60
2023/10/16 03:22:53;;;;;;;4.00;2.70;;;;;;;5.90;100.00;97255.36;110155;1243;60515;-61
2023/10/16 03:25:25;;;;;;;3.60;2.90;;;;;;;5.80;100.00;97261.82;110107;1246;72872;-60
2023/10/16 03:27:58;;;;;;;4.70;2.90;;;;;;;5.79;100.00;97271.88;110104;1245;69791;-61
2023/10/16 03:30:34;;;;;;;4.00;2.50;;;;;;;5.73;100.00;97279.45;110158;1245;69133;-60
2023/10/16 03:33:05;;;;;;;5.20;2.80;;;;;;;5.71;100.00;97283.05;110043;1241;60500;-61
2023/10/16 03:35:38;;;;;;;3.70;2.80;;;;;;;5.58;100.00;97288.55;110033;1246;60482;-61
2023/10/16 03:38:11;;;;;;;3.80;2.40;;;;;;;5.50;100.00;97288.11;110066;1244;72823;-62
2023/10/16 03:40:43;;;;;;;4.70;2.70;;;;;;;5.41;100.00;97288.80;110132;1244;68470;-62
2023/10/16 03:43:13;;;;;;;2.60;2.40;;;;;;;5.40;100.00;97288.20;110124;1244;68756;-60
2023/10/16 03:45:43;;;;;;;;;;;;;;;5.24;100.00;97291.97;110134;1244;60505;-60
2023/10/16 03:48:16;;;;;;;4.80;2.50;;;;;;;5.11;100.00;97294.04;110095;1243;60487;-60
2023/10/16 03:50:47;;;;;;;6.80;3.10;;;;;;;5.08;100.00;97298.16;110175;1245;72096;-61
2023/10/16 03:53:18;;;;;;;5.90;3.30;;;;;;;4.99;100.00;97302.08;110109;1242;68337;-61
2023/10/16 03:55:48;;;;;;;4.60;2.90;;;;;;;4.91;100.00;97302.89;110025;1241;69305;-60
2023/10/16 03:58:19;;;;;;;7.10;3.40;;;;;;;4.88;100.00;97312.37;110043;1242;60555;-61
2023/10/16 04:00:52;;;;;;;5.30;3.10;;;;;;;4.84;100.00;97314.98;110248;1245;60585;-61
2023/10/16 04:03:25;;;;;;;5.20;2.60;;;;;;;4.79;100.00;97317.81;110092;1241;71087;-60
2023/10/16 04:05:56;;;;;;;4.80;2.60;;;;;;;4.78;100.00;97319.59;110141;1243;69531;-61
2023/10/16 04:08:26;;;;;;;5.40;2.80;;;;;;;4.77;100.00;97320.66;110119;1244;69840;-61
2023/10/16 04:10:56;;;;;;;4.60;2.90;;;;;;;4.74;100.00;97321.66;110180;1243;60436;-62
2023/10/16 04:13:31;;;;;;;;;;;;;;;4.70;100.00;97327.93;110106;1245;60505;-62
2023/10/16 04:18:33;;;;;;;5.00;2.80;;;;;;;4.64;100.00;97336.38;110108;1246;68345;-61
2023/10/16 04:31:44;;;;;;;5.90;3.00;;;;;;;4.38;100.00;97352.84;110157;1245;68308;-61
2023/10/16 04:50:37;;;;;;;3.90;2.40;;;;;;;3.94;100.00;97377.17;110073;1242;60486;-61
2023/10/16 04:53:12;;;;;;;4.60;3.10;;;;;;;3.88;100.00;97377.62;110141;1244;60500;-61
2023/10/16 06:14:14;;;;;;;5.20;3.60;;;;;;;6.93;100.00;97502.96;110022;1245;60550;-60
2023/10/16 06:16:46;;;;;;;3.70;2.90;;;;;;;7.25;100.00;97503.91;110109;1244;60435;-60
2023/10/16 06:19:18;;;;;;;4.90;3.00;;;;;;;7.47;100.00;97500.88;110032;1242;72760;-60
2023/10/16 06:21:48;;;;;;;5.70;3.40;;;;;;;7.64;98.29;97505.98;110005;1246;69718;-60
2023/10/16 06:24:25;;;;;;;5.70;3.20;;;;;;;7.94;97.02;97512.17;109923;1244;69907;-61
2023/10/16 06:26:57;;;;;;;6.00;3.20;;;;;;;8.25;97.35;97514.26;109970;1244;60560;-61
2023/10/16 06:29:34;;;;;;;4.30;3.00;;;;;;;8.76;94.80;97524.62;110134;1245;60897;-61
2023/10/16 06:32:07;;;;;;;4.80;3.20;;;;;;;8.83;90.30;97537.58;110005;1244;71492;-62
2023/10/16 06:34:37;;;;;;;4.60;3.00;;;;;;;9.11;91.52;97541.30;110086;1241;68575;-62
2023/10/16 06:37:09;;;;;;;4.70;3.20;;;;;;;9.22;86.90;97544.57;110018;1242;70084;-62
2023/10/16 06:39:41;;;;;;;4.80;3.00;;;;;;;9.09;87.30;97546.36;109707;1241;60495;-61
2023/10/16 06:42:17;;;;;;;4.90;2.90;;;;;;;9.59;87.99;97546.35;110142;1245;60892;-61
2023/10/16 06:44:50;;;;;;;4.00;2.70;;;;;;;10.02;82.61;97552.31;110087;1245;72145;-61
2023/10/16 06:47:34;;;;;;;7.50;3.30;;;;;;;10.20;81.24;97558.41;110081;1245;69114;-60
2023/10/16 06:53:01;;;;;;;6.40;2.80;;;;;;;10.58;78.51;97562.55;109777;1244;60571;-60
2023/10/16 06:55:30;;;;;;;5.40;2.90;;;;;;;10.15;78.45;97558.88;109863;1245;60428;-60
2023/10/16 06:57:59;;;;;;;5.60;3.10;;;;;;;10.12;79.25;97552.13;109831;1245;72212;-60
2023/10/16 07:00:32;;;;;;;3.90;2.70;;;;;;;9.93;79.26;97561.64;110022;1241;69861;-61
2023/10/16 07:03:09;;;;;;;4.40;2.60;;;;;;;10.57;78.74;97562.09;110169;1244;69508;-60
2023/10/16 07:05:42;;;;;;;3.50;2.30;;;;;;;11.03;76.90;97564.42;110106;1245;60509;-60
2023/10/16 07:08:19;;;;;;;4.20;2.20;;;;;;;11.73;74.89;97563.08;110055;1244;60483;-60
2023/10/16 07:10:51;;;;;;;4.20;2.30;;;;;;;12.04;72.83;97566.38;110229;1244;71649;-61
2023/10/16 07:13:31;;;;;;;3.40;2.20;;;;;;;12.35;71.44;97568.53;110150;1245;69798;-60
2023/10/16 07:16:02;;;;;;;3.00;2.40;;;;;;;12.23;70.54;97570.90;110172;1245;69138;-61
2023/10/16 07:18:33;;;;;;;4.30;2.50;;;;;;;12.10;69.07;97567.66;110064;1241;60538;-61
2023/10/16 07:23:36;;;;;;;3.90;2.10;;;;;;;12.60;64.94;97571.67;110088;1244;73212;-61
2023/10/16 07:26:09;;;;;;;3.70;2.20;;;;;;;12.83;64.84;97572.44;110099;1244;68744;-60
2023/10/16 07:28:39;;;;;;;5.10;2.40;;;;;;;13.38;62.56;97572.47;110072;1245;69226;-60
2023/10/16 07:31:12;;;;;;;3.20;2.00;;;;;;;13.58;61.17;97570.48;110050;1241;60556;-60
2023/10/16 07:33:50;;;;;;;3.40;2.10;;;;;;;13.75;60.53;97571.49;110115;1245;60487;-60
2023/10/16 07:36:19;;;;;;;3.20;1.90;;;;;;;13.68;59.88;97574.83;110069;1245;72179;-61
2023/10/16 07:38:50;;;;;;;5.50;2.50;;;;;;;13.94;60.99;97570.83;110001;1244;69929;-61
2023/10/16 07:41:19;;;;;;;3.40;2.20;;;;;;;14.11;59.66;97574.06;110034;1245;69290;-61
2023/10/16 07:43:48;;;;;;;3.50;2.00;;;;;;;13.81;57.74;97580.78;110041;1245;60560;-61
2023/10/16 07:46:28;;;;;;;4.40;2.20;;;;;;;13.95;58.28;97584.39;110084;1241;60459;-61
2023/10/16 07:49:03;;;;;;;3.50;2.10;;;;;;;14.21;56.99;97594.62;110022;1241;72210;-61
2023/10/16 07:51:36;;;;;;;4.00;2.00;;;;;;;15.12;57.29;97602.36;110021;1244;69447;-61
2023/10/16 07:54:08;;;;;;;4.90;2.10;;;;;;;15.85;54.83;97602.36;110046;1244;69332;-61
2023/10/16 07:57:27;;;;;;;4.30;2.20;;;;;;;15.44;54.23;97604.67;110079;1241;60489;-60
2023/10/16 08:00:15;;;;;;;3.70;1.70;;;;;;;15.68;53.47;97603.94;110034;1241;60548;-60
2023/10/16 08:02:45;;;;;;;4.00;1.80;;;;;;;15.91;55.79;97606.73;110040;1241;71845;-60
2023/10/16 08:05:15;;;;;;;4.00;2.30;;;;;;;14.71;52.63;97610.81;110045;1243;68863;-60
2023/10/16 08:07:49;;;;;;;3.10;2.00;;;;;;;15.61;53.48;97612.25;110035;1245;69619;-61
2023/10/16 08:13:13;;;;;;;3.20;1.90;;;;;;;16.29;49.19;97615.70;110057;1244;60499;-62
2023/10/16 08:15:48;;;;;;;3.60;2.00;;;;;;;16.64;48.83;97619.61;110068;1251;72113;-61
2023/10/16 08:18:19;;;;;;;4.50;1.60;;;;;;;17.30;47.20;97619.54;110082;1244;69721;-63
2023/10/16 08:21:00;;;;;;;2.50;1.90;;;;;;;17.91;48.24;97619.77;110140;1245;69719;-63
2023/10/16 08:23:37;;;;;;;4.30;1.90;;;;;;;18.06;44.99;97621.71;110076;1246;60550;-60
2023/10/16 08:32:43;;;;;;;3.60;2.10;;;;;;;18.42;44.40;97624.84;110143;1241;69990;-61
2023/10/16 08:34:42;;;;;;;3.80;2.10;;;;;;;18.29;45.22;97627.43;110111;1242;69735;-61
2023/10/16 08:37:13;;;;;;;3.10;2.00;;;;;;;17.90;43.47;97620.17;110013;1244;60545;-62
2023/10/16 08:39:48;;;;;;;3.40;1.90;;;;;;;16.08;45.51;97628.98;110104;1244;60556;-62
2023/10/16 08:42:20;;;;;;;3.80;1.90;;;;;;;17.45;46.47;97634.44;110070;1245;72066;-62
2023/10/16 08:44:51;;;;;;;4.10;1.80;;;;;;;17.85;44.22;97631.41;110111;1244;69848;-61
2023/10/16 08:47:30;;;;;;;3.20;1.90;;;;;;;17.96;42.84;97630.67;110033;1241;68695;-62
2023/10/16 08:50:01;;;;;;;2.80;1.30;;;;;;;17.98;44.24;97629.10;110069;1242;60486;-61
2023/10/16 08:52:34;;;;;;;2.80;1.70;;;;;;;18.56;44.10;97628.02;110057;1245;60489;-62
2023/10/16 08:55:16;;;;;;;4.20;1.90;;;;;;;19.15;43.43;97631.61;110010;1242;72801;-61
2023/10/16 08:57:48;;;;;;;3.10;1.80;;;;;;;19.42;42.51;97633.19;110032;1245;69266;-61
2023/10/16 09:00:22;;;;;;;3.00;1.60;;;;;;;18.05;39.62;97631.34;110020;1245;69415;-61
2023/10/16 09:02:55;;;;;;;2.90;1.80;;;;;;;17.47;42.00;97637.94;110028;1241;60478;-62
2023/10/16 09:05:26;;;;;;;3.70;1.90;;;;;;;17.60;42.38;97640.36;110051;1241;60478;-61
2023/10/16 09:07:55;;;;;;;3.40;1.60;;;;;;;17.65;41.96;97643.24;109667;1244;589846;-61
2023/10/16 09:10:29;;;;;;;2.80;1.70;;;;;;;16.94;42.28;97649.38;109970;1244;68737;-61
2023/10/16 09:13:16;;;;;;;3.10;1.50;;;;;;;18.04;41.55;97654.73;110048;1244;69285;-62
2023/10/16 09:15:52;;;;;;;2.50;1.50;;;;;;;19.03;40.78;97657.65;110055;1244;60415;-62
2023/10/16 09:18:22;;;;;;;;;;;;;;;19.32;38.45;97655.29;110042;1244;60550;-61
2023/10/16 09:20:56;;;;;;;2.50;1.50;;;;;;;19.90;38.31;97659.09;110058;1246;73203;-61
2023/10/16 09:23:36;;;;;;;2.50;1.20;;;;;;;20.34;37.77;97660.92;110019;1244;69825;-62
2023/10/16 09:26:10;;;;;;;2.90;1.40;;;;;;;20.33;37.44;97657.09;110026;1241;68329;-62
2023/10/16 09:28:41;;;;;;;2.90;1.40;;;;;;;19.81;37.56;97665.48;110054;1241;60536;-61
2023/10/16 09:31:17;;;;;;;2.60;1.40;;;;;;;19.36;37.92;97661.20;110031;1244;60480;-61
2023/10/16 09:33:50;;;;;;;2.80;1.20;;;;;;;19.37;38.18;97664.18;110018;1241;71879;-63
2023/10/16 09:36:23;;;;;;;2.90;1.30;;;;;;;19.72;37.07;97667.96;110039;1241;69241;-62
2023/10/16 09:38:53;;;;;;;3.10;1.80;;;;;;;19.39;37.33;97665.23;110042;1244;69804;-62
2023/10/16 09:43:56;;;;;;;2.80;1.30;;;;;;;17.27;40.45;97667.70;110082;1244;60473;-62
2023/10/16 09:49:23;;;;;;;1.90;1.30;;;;;;;19.18;38.06;97662.70;110025;1245;69836;-62
2023/10/16 09:51:57;;;;;;;2.70;1.40;;;;;;;19.81;36.06;97662.90;110081;1242;69257;-61
2023/10/16 09:54:35;;;;;;;2.90;1.30;;;;;;;20.16;36.38;97663.55;110014;1244;60489;-61
2023/10/16 09:57:08;;;;;;;3.40;1.40;;;;;;;19.52;36.35;97660.25;110072;1241;60582;-61
2023/10/16 09:59:39;;;;;;;2.40;1.10;;;;;;;18.95;36.60;97654.59;110116;1244;72773;-61
2023/10/16 10:02:18;;;;;;;2.60;1.30;;;;;;;18.32;36.86;97651.23;110059;1241;69306;-62
2023/10/16 10:05:04;;;;;;;3.10;1.20;;;;;;;17.78;37.54;97654.81;110033;1242;68657;-62
2023/10/16 10:07:38;;;;;;;2.40;1.20;;;;;;;17.98;38.25;97651.80;110031;1243;60565;-60
2023/10/16 10:13:23;;;;;;;2.90;1.40;;;;;;;16.05;38.66;97657.30;110051;1244;72802;-61
2023/10/16 10:15:58;;;;;;;2.10;1.20;;;;;;;16.16;38.57;97654.44;110126;1242;67541;-61
2023/10/16 10:19:04;;;;;;;2.00;1.20;;;;;;;15.59;39.27;97658.95;110093;1247;69839;-61
2023/10/16 10:21:28;;;;;;;2.50;1.40;;;;;;;15.85;38.69;97654.38;110054;1241;60518;-60
2023/10/16 10:24:03;;;;;;;1.60;1.20;;;;;;;16.39;39.10;97646.45;110027;1244;60507;-61
2023/10/16 10:26:33;;;;;;;2.00;1.20;;;;;;;16.63;38.65;97646.51;110107;1244;72188;-63
2023/10/16 10:29:09;;;;;;;;;;;;;;;16.82;38.62;97646.30;110081;1241;69416;-61
2023/10/16 10:31:42;;;;;;;2.40;1.50;;;;;;;16.61;38.84;97648.60;110056;1241;69639;-61
2023/10/16 10:34:23;;;;;;;2.20;1.20;;;;;;;16.26;38.68;97648.17;110224;1243;60523;-61
2023/10/16 10:36:53;;;;;;;2.00;0.90;;;;;;;15.86;39.98;97654.14;110292;1244;60487;-60
2023/10/16 10:39:22;;;;;;;2.40;1.20;;;;;;;15.27;40.50;97650.17;110224;1243;71823;-60
2023/10/16 10:41:58;;;;;;;2.60;1.10;;;;;;;14.83;40.67;97652.27;110190;1244;69878;-62
2023/10/16 10:44:37;;;;;;;2.10;1.00;;;;;;;14.50;41.15;97647.26;110222;1242;69206;-61
2023/10/16 10:47:30;;;;;;;1.90;1.30;;;;;;;14.75;41.52;97648.20;110295;1241;60563;-62
2023/10/16 10:50:11;;;;;;;2.30;1.30;;;;;;;14.58;41.36;97644.80;110223;1240;60441;-61
2023/10/16 10:52:43;;;;;;;2.00;1.10;;;;;;;14.44;41.74;97641.08;110213;1241;72105;-59
2023/10/16 10:55:21;;;;;;;2.20;1.30;;;;;;;14.81;41.87;97642.50;110184;1244;69240;-61
2023/10/16 10:57:55;;;;;;;3.00;1.30;;;;;;;14.74;41.15;97648.35;110147;1248;69446;-61
2023/10/16 11:05:31;;;;;;;1.90;1.10;;;;;;;14.38;42.51;97645.21;110275;1242;72776;-63
2023/10/16 11:10:47;;;;;;;2.20;1.20;;;;;;;14.03;41.59;97646.44;110119;1241;69342;-61
2023/10/16 11:13:18;;;;;;;1.80;1.10;;;;;;;14.21;41.20;97640.89;110136;1244;60512;-60
2023/10/16 11:15:54;;;;;;;3.10;1.30;;;;;;;15.22;41.26;97640.94;110117;1245;60492;-60
2023/10/16 11:18:26;;;;;;;1.80;1.10;;;;;;;16.44;40.18;97631.73;110089;1245;72782;-61
2023/10/16 11:21:03;;;;;;;2.10;1.30;;;;;;;16.91;40.03;97635.20;110114;1243;69295;-62
2023/10/16 11:23:38;;;;;;;2.30;1.10;;;;;;;16.99;38.69;97631.86;110117;1244;68659;-61
2023/10/16 11:26:16;;;;;;;2.30;1.00;;;;;;;16.92;38.13;97631.08;110126;1244;60566;-60
2023/10/16 11:28:48;;;;;;;2.20;1.30;;;;;;;16.37;38.05;97628.36;110132;1241;60432;-61
2023/10/16 11:31:18;;;;;;;2.00;1.00;;;;;;;16.69;38.48;97628.85;110150;1244;71335;-62
2023/10/16 11:34:01;;;;;;;1.70;1.20;;;;;;;17.35;37.40;97629.80;110155;1241;69497;-60
2023/10/16 11:36:36;;;;;;;2.70;1.30;;;;;;;17.45;37.59;97633.77;110102;1244;69949;-61
2023/10/16 11:39:19;;;;;;;2.20;1.10;;;;;;;17.22;38.02;97641.40;110097;1243;60452;-61
2023/10/16 11:41:49;;;;;;;1.70;0.90;;;;;;;16.89;38.15;97642.67;110164;1241;60591;-61
2023/10/16 11:44:25;;;;;;;2.40;1.00;;;;;;;16.39;38.04;97644.87;110145;1243;71652;-60
2023/10/16 11:46:55;;;;;;;1.90;1.00;;;;;;;15.98;38.58;97646.20;110143;1244;69315;-62
2023/10/16 11:49:35;;;;;;;1.10;0.80;;;;;;;15.36;38.90;97646.79;110118;1244;69267;-61
2023/10/16 11:52:19;;;;;;;1.80;0.90;;;;;;;14.84;39.32;97641.20;110178;1243;60489;-61
2023/10/16 11:54:56;;;;;;;2.20;1.20;;;;;;;14.44;40.29;97636.17;110143;1241;60516;-62
2023/10/16 11:57:29;;;;;;;2.10;1.00;;;;;;;14.62;40.54;97632.38;110108;1243;72518;-61
2023/10/16 12:00:15;;;;;;;1.50;1.10;;;;;;;14.97;40.61;97629.04;110085;1244;69854;-61
2023/10/16 12:02:49;;;;;;;3.40;1.30;;;;;;;15.06;40.34;97631.35;110083;1244;69282;-61
2023/10/16 12:05:19;;;;;;;2.70;1.30;;;;;;;14.80;40.41;97633.64;110133;1244;60504;-61
2023/10/16 12:07:52;;;;;;;2.80;1.40;;;;;;;14.40;40.79;97629.28;110121;1241;60548;-61
2023/10/16 12:10:22;;;;;;;1.90;1.10;;;;;;;14.04;41.15;97630.60;110143;1244;72176;-61
2023/10/16 12:12:55;;;;;;;1.90;1.20;;;;;;;13.72;41.37;97630.77;110128;1241;68177;-61
2023/10/16 12:15:24;;;;;;;1.80;1.10;;;;;;;13.97;41.11;97626.91;110147;1244;69992;-61
2023/10/16 12:17:55;;;;;;;2.00;1.10;;;;;;;14.35;40.58;97624.70;110073;1250;60507;-61
2023/10/16 12:20:27;;;;;;;2.00;1.00;;;;;;;14.79;40.85;97632.81;110165;1241;60537;-61
2023/10/16 12:22:57;;;;;;;2.10;1.00;;;;;;;15.99;40.05;97626.35;110164;1241;72794;-62
2023/10/16 12:25:27;;;;;;;2.10;1.10;;;;;;;17.20;38.62;97622.81;110122;1243;68320;-62
2023/10/16 12:27:57;;;;;;;1.90;1.20;;;;;;;18.10;37.66;97624.04;110137;1243;69699;-61
2023/10/16 12:30:27;;;;;;;1.80;1.00;;;;;;;19.09;36.27;97631.55;110123;1244;60485;-60
2023/10/16 12:32:59;;;;;;;2.40;1.00;;;;;;;19.89;34.03;97629.44;110128;1244;60480;-61
2023/10/16 12:35:30;;;;;;;1.50;1.00;;;;;;;20.67;34.65;97629.80;110156;1244;72834;-61
2023/10/16 12:38:04;;;;;;;2.10;1.20;;;;;;;21.08;31.89;97630.35;110149;1244;69291;-61
2023/10/16 12:40:39;;;;;;;1.70;1.00;;;;;;;20.85;31.03;97625.41;110113;1243;69280;-61
2023/10/16 12:43:09;;;;;;;2.10;0.90;;;;;;;20.48;30.62;97621.47;110159;1241;60490;-60
2023/10/16 12:45:40;;;;;;;;;;;;;;;20.84;30.65;97621.26;110154;1244;60438;-61
2023/10/16 12:48:10;;;;;;;1.70;0.90;;;;;;;21.64;29.94;97622.15;110187;1245;72092;-61
2023/10/16 12:50:40;;;;;;;2.30;0.90;;;;;;;22.24;30.40;97617.42;110154;1251;69743;-61
2023/10/16 12:53:24;;;;;;;1.60;1.20;;;;;;;22.48;29.21;97619.96;110169;1243;69698;-61
2023/10/16 12:55:55;;;;;;;2.10;0.80;;;;;;;22.27;28.74;97623.16;110168;1243;60516;-60
2023/10/16 12:58:28;;;;;;;1.40;0.90;;;;;;;22.30;28.97;97627.92;110174;1243;60580;-60
2023/10/16 13:00:58;;;;;;;1.90;0.80;;;;;;;22.08;28.20;97632.25;110135;1243;72247;-61
2023/10/16 13:03:32;;;;;;;2.20;1.00;;;;;;;21.94;29.53;97631.65;110160;1242;69286;-60
2023/10/16 13:06:08;;;;;;;2.00;0.70;;;;;;;21.40;29.62;97637.56;110149;1244;69773;-60
2023/10/16 13:08:41;;;;;;;2.00;0.90;;;;;;;20.97;29.89;97639.78;110163;1244;60513;-60
2023/10/16 13:11:11;;;;;;;2.40;0.90;;;;;;;21.28;29.47;97640.37;110129;1244;60442;-60
2023/10/16 13:13:42;;;;;;;2.40;0.80;;;;;;;21.24;28.11;97636.59;109906;1244;71977;-62
2023/10/16 13:16:12;;;;;;;1.30;0.90;;;;;;;21.36;29.05;97644.65;110184;1244;69120;-61
2023/10/16 13:18:43;;;;;;;1.60;0.70;;;;;;;21.94;28.51;97639.20;109979;1244;69908;-59
2023/10/16 13:21:15;;;;;;;0.80;0.70;;;;;;;21.81;27.72;97635.23;110139;1243;60495;-61
2023/10/16 13:23:51;;;;;;;1.00;0.70;;;;;;;21.51;28.39;97635.83;110168;1244;60510;-61
2023/10/16 13:26:21;;;;;;;3.70;1.00;;;;;;;22.19;28.80;97643.54;110173;1244;73298;-61
2023/10/16 13:28:54;;;;;;;1.30;1.10;;;;;;;20.92;27.48;97639.23;110213;1243;69149;-60
2023/10/16 13:31:25;;;;;;;1.80;1.00;;;;;;;20.93;28.17;97644.23;110159;1243;69863;-61
2023/10/16 13:33:55;;;;;;;1.80;0.90;;;;;;;21.49;28.92;97644.96;110125;1251;60549;-62
2023/10/16 13:36:25;;;;;;;1.10;0.70;;;;;;;21.77;28.24;97639.55;110138;1244;60412;-62
2023/10/16 13:38:55;;;;;;;2.40;1.00;;;;;;;21.95;28.26;97638.16;110129;1244;73066;-60
2023/10/16 13:41:27;;;;;;;1.80;0.90;;;;;;;22.37;28.76;97642.56;110127;1241;67789;-60
2023/10/16 13:43:57;;;;;;;2.60;1.10;;;;;;;22.03;27.61;97642.79;110107;1241;69645;-62
2023/10/16 13:46:30;;;;;;;1.40;0.90;;;;;;;22.11;27.60;97640.41;110148;1244;60536;-62
2023/10/16 13:48:59;;;;;;;2.00;0.90;;;;;;;21.70;27.76;97642.55;110157;1244;60445;-61
2023/10/16 13:51:29;;;;;;;1.70;0.90;;;;;;;21.60;28.06;97641.72;110139;1241;71511;-61
2023/10/16 13:53:59;;;;;;;1.20;0.80;;;;;;;21.70;28.03;97645.35;110176;1243;68187;-61
2023/10/16 13:56:28;;;;;;;1.80;1.00;;;;;;;21.70;27.95;97638.10;110117;1241;69958;-62
2023/10/16 13:58:59;;;;;;;1.60;1.00;;;;;;;21.37;28.02;97638.11;110153;1241;60574;-62
2023/10/16 14:01:30;;;;;;;;;;;;;;;21.33;27.82;97638.99;110170;1241;60508;-62
2023/10/16 14:04:03;;;;;;;1.40;1.00;;;;;;;21.29;28.02;97638.70;110153;1241;72242;-61
2023/10/16 14:06:34;;;;;;;1.60;0.90;;;;;;;21.33;27.90;97641.29;110179;1244;69923;-61
2023/10/16 14:09:10;;;;;;;1.30;0.90;;;;;;;20.02;27.98;97644.00;110182;1244;69196;-61
2023/10/16 14:11:47;;;;;;;1.50;0.80;;;;;;;20.00;28.71;97640.17;110133;1244;60563;-60
2023/10/16 14:14:21;;;;;;;1.60;0.80;;;;;;;19.98;28.84;97642.79;110125;1241;60606;-61
2023/10/16 14:17:03;;;;;;;2.00;0.80;;;;;;;19.50;29.51;97652.14;110143;1241;73076;-60
2023/10/16 14:19:35;;;;;;;1.90;0.80;;;;;;;18.93;30.04;97657.80;110131;1245;69579;-61
2023/10/16 14:22:06;;;;;;;1.50;0.80;;;;;;;18.28;30.25;97653.10;110113;1241;69746;-61
2023/10/16 14:24:36;;;;;;;1.80;0.70;;;;;;;17.37;32.06;97659.48;110133;1243;60465;-61
2023/10/16 14:27:05;;;;;;;2.00;0.80;;;;;;;16.64;32.22;97660.08;110129;1243;60490;-60